Time;durP1;ratioP1;P1;durP2;ratioP2;P2;SDS_P1;SDS_P2;PMS_P1;PMS_P2;Temp;Humidity;BMP_temperature;BMP_pressure;BME280_temperature;BME280_humidity;BME280_pressure;Samples;Min_cycle;Max_cycle;Signal;HPM_P1;HPM_P2
2022/04/04 00:00:50;;;;;;;31.13;11.23;;;;;;;1.44;100.00;101630.09;4959853;28;20050;-78
2022/04/04 00:03:16;;;;;;;40.17;11.40;;;;;;;1.42;100.00;101632.84;4975676;28;20160;-78
2022/04/04 00:05:41;;;;;;;36.97;12.30;;;;;;;1.40;100.00;101614.94;4987280;28;20076;-77
2022/04/04 00:08:07;;;;;;;42.63;12.25;;;;;;;1.37;100.00;101620.44;4970503;28;20050;-78
2022/04/04 00:10:33;;;;;;;36.63;12.57;;;;;;;1.25;100.00;101617.16;4963772;28;20027;-78
2022/04/04 00:13:00;;;;;;;36.05;13.02;;;;;;;1.33;100.00;101621.44;4969793;28;20726;-78
2022/04/04 00:15:25;;;;;;;38.13;13.50;;;;;;;1.29;100.00;101615.25;4949317;28;20038;-78
2022/04/04 00:17:51;;;;;;;35.22;11.95;;;;;;;1.30;100.00;101617.03;4977000;28;20050;-77
2022/04/04 00:20:17;;;;;;;45.35;13.32;;;;;;;1.28;100.00;101613.50;4981473;28;20390;-77
2022/04/04 00:22:43;;;;;;;36.72;13.63;;;;;;;1.26;100.00;101612.63;4966646;28;20404;-77
2022/04/04 00:25:09;;;;;;;42.15;13.77;;;;;;;1.24;100.00;101601.88;4986022;28;20039;-78
2022/04/04 00:27:35;;;;;;;51.92;14.05;;;;;;;1.24;100.00;101606.41;4992214;28;20042;-78
2022/04/04 00:30:02;;;;;;;40.70;12.35;;;;;;;1.22;100.00;101601.06;4967437;28;20054;-79
2022/04/04 00:32:28;;;;;;;36.10;14.48;;;;;;;1.19;100.00;101600.25;4968600;28;20102;-79
2022/04/04 00:34:54;;;;;;;36.10;13.57;;;;;;;1.20;100.00;101600.22;4970755;28;20042;-79
2022/04/04 00:37:20;;;;;;;37.88;16.50;;;;;;;1.21;100.00;101596.56;4979899;28;20041;-79
2022/04/04 00:39:45;;;;;;;37.92;13.85;;;;;;;1.18;100.00;101590.38;4972879;28;20037;-79
2022/04/04 00:42:14;;;;;;;39.47;14.60;;;;;;;1.18;100.00;101590.38;4978286;28;20062;-78
2022/04/04 00:44:40;;;;;;;40.40;12.98;;;;;;;1.21;100.00;101582.22;4977196;28;20019;-79
2022/04/04 00:47:07;;;;;;;37.10;13.27;;;;;;;1.18;100.00;101585.00;4985941;28;20373;-78
2022/04/04 00:49:32;;;;;;;37.17;13.93;;;;;;;1.13;100.00;101576.16;4989091;28;20026;-78
2022/04/04 00:51:58;;;;;;;38.80;13.27;;;;;;;1.16;100.00;101576.06;4974731;28;20060;-77
2022/04/04 00:54:23;;;;;;;37.97;13.07;;;;;;;1.17;100.00;101572.47;4989593;28;20348;-78
2022/04/04 00:56:49;;;;;;;39.78;15.13;;;;;;;1.16;100.00;101571.53;4970480;28;20034;-77
2022/04/04 00:59:17;;;;;;;38.65;13.77;;;;;;;1.10;100.00;101574.44;4960182;28;20049;-77
2022/04/04 01:01:44;;;;;;;31.10;13.75;;;;;;;1.10;100.00;101558.25;4969585;28;20124;-78
2022/04/04 01:04:11;;;;;;;45.88;13.45;;;;;;;1.15;100.00;101555.41;4967297;28;20042;-78
2022/04/04 01:06:37;;;;;;;41.13;13.23;;;;;;;1.08;100.00;101547.53;4960794;28;20030;-78
2022/04/04 01:09:03;;;;;;;28.58;13.35;;;;;;;1.02;100.00;101541.41;4994141;28;20034;-78
2022/04/04 01:11:29;;;;;;;28.70;12.27;;;;;;;1.10;100.00;101550.19;4977661;28;20121;-78
2022/04/04 01:13:55;;;;;;;23.40;11.75;;;;;;;1.17;100.00;101549.06;4962005;28;20030;-79
2022/04/04 01:16:21;;;;;;;32.33;12.52;;;;;;;1.15;100.00;101542.84;4995957;28;20037;-79
2022/04/04 01:18:46;;;;;;;30.30;11.93;;;;;;;1.15;100.00;101536.53;4994587;28;20125;-79
2022/04/04 01:21:12;;;;;;;23.48;11.55;;;;;;;1.19;100.00;101535.53;4972494;28;20096;-79
2022/04/04 01:23:42;;;;;;;23.85;10.68;;;;;;;1.16;100.00;101535.63;4961265;28;20026;-79
2022/04/04 01:26:09;;;;;;;20.63;10.73;;;;;;;1.09;100.00;101525.00;4964030;28;20039;-79
2022/04/04 01:28:35;;;;;;;29.67;10.73;;;;;;;1.16;100.00;101533.78;4971564;28;20042;-79
2022/04/04 01:31:00;;;;;;;21.85;10.20;;;;;;;1.07;100.00;101518.78;4988412;28;20045;-79
2022/04/04 01:33:26;;;;;;;20.42;9.52;;;;;;;1.13;100.00;101520.41;4995117;28;20022;-78
2022/04/04 01:35:52;;;;;;;17.60;8.20;;;;;;;1.08;100.00;101519.66;4969968;28;20054;-77
2022/04/04 01:38:18;;;;;;;17.55;9.18;;;;;;;1.19;100.00;101514.81;4984343;28;20054;-77
2022/04/04 01:40:43;;;;;;;27.48;9.32;;;;;;;1.17;100.00;101513.13;4992298;28;20056;-77
2022/04/04 01:43:09;;;;;;;18.42;8.27;;;;;;;1.11;100.00;101508.78;4988388;28;20135;-77
2022/04/04 01:46:35;;;;;;;28.00;8.90;;;;;;;1.10;100.00;101494.41;4952642;28;20026;-77
2022/04/04 01:48:35;;;;;;;17.85;8.02;;;;;;;1.21;100.00;101499.47;4978513;28;20130;-77
2022/04/04 01:51:01;;;;;;;13.98;7.50;;;;;;;1.06;100.00;101481.94;4963374;28;20035;-77
2022/04/04 01:53:26;;;;;;;18.60;7.50;;;;;;;1.08;100.00;101479.19;4977568;28;20497;-77
2022/04/04 01:55:54;;;;;;;11.00;7.10;;;;;;;1.09;100.00;101480.97;4954474;28;20097;-78
2022/04/04 01:58:19;;;;;;;15.80;7.25;;;;;;;1.06;100.00;101472.97;4959239;28;20038;-78
2022/04/04 02:00:45;;;;;;;10.80;6.07;;;;;;;1.08;100.00;101469.31;4994444;28;20351;-78
2022/04/04 02:03:10;;;;;;;19.33;7.38;;;;;;;1.07;100.00;101459.44;4946899;28;20509;-79
2022/04/04 02:05:36;;;;;;;20.13;7.30;;;;;;;1.00;100.00;101456.97;4996463;28;20153;-79
2022/04/04 02:08:03;;;;;;;11.90;6.45;;;;;;;1.04;100.00;101453.28;4972587;28;20030;-79
2022/04/04 02:10:28;;;;;;;15.73;7.53;;;;;;;1.05;100.00;101446.94;4963864;28;20061;-79
2022/04/04 02:12:53;;;;;;;14.85;7.03;;;;;;;1.05;100.00;101444.22;4978816;28;20042;-79
2022/04/04 02:15:19;;;;;;;14.80;6.75;;;;;;;1.05;100.00;101450.53;4978298;28;20042;-80
2022/04/04 02:17:44;;;;;;;8.88;5.35;;;;;;;1.05;100.00;101431.66;4963868;28;20031;-78
2022/04/04 02:20:10;;;;;;;11.43;6.57;;;;;;;1.13;100.00;101426.00;4967931;28;20038;-79
2022/04/04 02:22:36;;;;;;;12.95;6.68;;;;;;;1.08;100.00;101409.09;4962013;28;20502;-78
2022/04/04 02:25:03;;;;;;;11.93;5.47;;;;;;;1.12;100.00;101426.09;4964776;28;20137;-78
2022/04/04 02:27:29;;;;;;;10.95;5.55;;;;;;;1.18;100.00;101416.00;4972479;28;20077;-78
2022/04/04 02:29:55;;;;;;;8.85;5.75;;;;;;;1.17;100.00;101414.22;4976390;28;20030;-78
2022/04/04 02:32:20;;;;;;;7.88;5.18;;;;;;;1.32;100.00;101420.06;4958535;28;20050;-78
2022/04/04 02:34:46;;;;;;;12.45;5.40;;;;;;;1.26;100.00;101411.25;4971666;28;20039;-77
2022/04/04 02:37:12;;;;;;;11.07;6.13;;;;;;;1.29;100.00;101402.16;4974085;28;20477;-77
2022/04/04 02:39:38;;;;;;;13.40;5.68;;;;;;;1.25;100.00;101390.56;4969953;28;20031;-77
2022/04/04 02:42:04;;;;;;;15.73;5.72;;;;;;;1.31;100.00;101392.19;4957345;28;20038;-77
2022/04/04 02:44:29;;;;;;;14.30;5.47;;;;;;;1.35;100.00;101385.78;4978390;28;20038;-77
2022/04/04 02:46:54;;;;;;;8.52;4.82;;;;;;;1.36;100.00;101375.84;4952538;28;20033;-77
2022/04/04 02:49:20;;;;;;;15.50;6.07;;;;;;;1.41;100.00;101372.09;4980220;28;20066;-78
2022/04/04 02:51:45;;;;;;;9.50;6.45;;;;;;;1.49;100.00;101369.13;4968625;28;20035;-78
2022/04/04 02:54:11;;;;;;;10.02;6.10;;;;;;;1.45;100.00;101370.16;4962770;28;20066;-77
2022/04/04 02:56:39;;;;;;;8.63;5.65;;;;;;;1.50;100.00;101353.84;4979602;28;20497;-78
2022/04/04 02:59:05;;;;;;;13.80;5.35;;;;;;;1.52;100.00;101360.94;4951676;29;20114;-78
2022/04/04 03:01:31;;;;;;;10.43;5.53;;;;;;;1.46;100.00;101344.97;4957969;28;20114;-78
2022/04/04 03:03:57;;;;;;;14.90;5.97;;;;;;;1.45;100.00;101343.19;4972684;28;20030;-77
2022/04/04 03:06:23;;;;;;;10.18;5.65;;;;;;;1.52;100.00;101344.75;4968338;28;20038;-78
2022/04/04 03:08:49;;;;;;;18.15;5.53;;;;;;;1.53;100.00;101333.03;4965949;28;20066;-78
2022/04/04 03:11:15;;;;;;;12.55;4.47;;;;;;;1.55;100.00;101339.25;4967711;28;20031;-78
2022/04/04 03:13:41;;;;;;;7.40;5.03;;;;;;;1.61;100.00;101325.53;4971149;28;20066;-78
2022/04/04 03:16:06;;;;;;;9.77;5.40;;;;;;;1.60;100.00;101326.47;4969896;28;20036;-78
2022/04/04 03:18:33;;;;;;;15.90;5.32;;;;;;;1.56;100.00;101319.44;4955262;28;20371;-77
2022/04/04 03:20:59;;;;;;;12.63;5.50;;;;;;;1.71;100.00;101314.44;4976667;28;20427;-77
2022/04/04 03:23:27;;;;;;;11.48;5.43;;;;;;;1.69;100.00;101313.59;4963699;28;20030;-77
2022/04/04 03:25:52;;;;;;;10.77;6.00;;;;;;;1.64;100.00;101311.94;4967603;28;20368;-77
2022/04/04 03:28:18;;;;;;;12.48;5.18;;;;;;;1.64;100.00;101305.66;4951394;28;20038;-78
2022/04/04 03:30:43;;;;;;;10.18;5.13;;;;;;;1.74;100.00;101306.22;4977112;28;20043;-78
2022/04/04 03:33:09;;;;;;;13.70;5.65;;;;;;;1.72;100.00;101300.00;4973910;28;20569;-77
2022/04/04 03:35:37;;;;;;;9.55;4.80;;;;;;;1.66;100.00;101287.59;4969634;28;20075;-78
2022/04/04 03:38:04;;;;;;;12.32;5.40;;;;;;;1.73;100.00;101289.13;4977531;28;20046;-78
2022/04/04 03:40:30;;;;;;;8.90;5.47;;;;;;;1.75;100.00;101286.41;4976686;28;20043;-78
2022/04/04 03:42:58;;;;;;;9.35;4.75;;;;;;;1.79;100.00;101282.66;4961586;28;20034;-78
2022/04/04 03:45:24;;;;;;;8.32;4.63;;;;;;;1.84;100.00;101281.53;4975025;28;20063;-77
2022/04/04 03:47:50;;;;;;;9.00;4.80;;;;;;;1.83;100.00;101276.19;4968355;28;20164;-78
2022/04/04 03:50:17;;;;;;;9.00;4.93;;;;;;;1.87;100.00;101272.47;4968816;28;20031;-77
2022/04/04 03:52:47;;;;;;;9.18;5.18;;;;;;;1.87;100.00;101269.78;4982106;28;20051;-78
2022/04/04 03:55:13;;;;;;;12.27;5.35;;;;;;;1.87;100.00;101266.16;4971254;28;20085;-78
2022/04/04 03:57:40;;;;;;;12.85;4.53;;;;;;;1.88;100.00;101254.44;4967313;28;20039;-78
2022/04/04 04:00:07;;;;;;;11.48;5.60;;;;;;;1.85;100.00;101252.72;4967750;28;20127;-78
2022/04/04 04:02:33;;;;;;;9.70;5.38;;;;;;;1.89;100.00;101240.88;4950368;28;20051;-78
2022/04/04 04:04:59;;;;;;;11.40;5.47;;;;;;;1.87;100.00;101240.06;4964321;28;20030;-77
2022/04/04 04:07:25;;;;;;;12.23;5.22;;;;;;;1.90;100.00;101236.34;4973094;28;20038;-77
2022/04/04 04:09:54;;;;;;;7.15;4.47;;;;;;;1.88;100.00;101224.75;4971742;28;20088;-78
2022/04/04 04:12:22;;;;;;;7.82;4.50;;;;;;;1.91;100.00;101227.34;4969207;28;20038;-77
2022/04/04 04:14:51;;;;;;;11.15;5.45;;;;;;;1.92;100.00;101227.28;4968591;28;20085;-78
2022/04/04 04:17:18;;;;;;;9.85;5.28;;;;;;;1.94;100.00;101213.72;4967301;28;20085;-78
2022/04/04 04:22:29;;;;;;;7.82;4.60;;;;;;;1.94;100.00;101219.13;4961899;28;20101;-77
2022/04/04 04:24:55;;;;;;;10.27;5.68;;;;;;;1.92;100.00;101216.47;4966276;28;20048;-78
2022/04/04 04:27:20;;;;;;;7.95;4.78;;;;;;;1.95;100.00;101210.97;4970098;28;20050;-77
2022/04/04 04:29:46;;;;;;;15.80;4.97;;;;;;;1.97;100.00;101195.59;4969265;28;20045;-77
2022/04/04 04:32:12;;;;;;;15.30;6.40;;;;;;;1.96;100.00;101195.63;4953585;28;20525;-78
2022/04/04 04:34:38;;;;;;;9.25;5.38;;;;;;;1.95;100.00;101194.75;4957132;28;20034;-80
2022/04/04 04:37:05;;;;;;;14.30;5.70;;;;;;;1.95;100.00;101200.16;4971687;28;20114;-77
2022/04/04 04:39:31;;;;;;;9.45;5.40;;;;;;;1.92;100.00;101189.47;4972803;28;20114;-77
2022/04/04 04:41:56;;;;;;;10.52;5.72;;;;;;;1.97;100.00;101194.72;4964462;28;20075;-78
2022/04/04 04:44:22;;;;;;;8.77;5.18;;;;;;;1.96;100.00;101185.72;4966324;28;20376;-78
2022/04/04 04:46:48;;;;;;;13.75;6.15;;;;;;;1.95;100.00;101180.38;4969441;28;20042;-78
2022/04/04 04:49:14;;;;;;;10.93;6.18;;;;;;;1.96;100.00;101176.72;4973688;28;20059;-79
2022/04/04 04:51:41;;;;;;;12.45;6.70;;;;;;;1.92;100.00;101180.47;4969316;28;20042;-78
2022/04/04 04:54:07;;;;;;;14.02;6.80;;;;;;;1.96;100.00;101172.19;4966568;28;20035;-78
2022/04/04 04:56:33;;;;;;;15.32;7.78;;;;;;;1.93;100.00;101166.91;4962620;28;20126;-78
2022/04/04 04:58:59;;;;;;;15.13;7.05;;;;;;;1.97;100.00;101165.88;4947857;29;20042;-78
2022/04/04 05:01:25;;;;;;;18.67;7.80;;;;;;;1.90;100.00;101150.84;4951918;28;20042;-78
2022/04/04 05:03:51;;;;;;;14.15;7.97;;;;;;;1.89;100.00;101151.78;4964694;28;20035;-78
2022/04/04 05:06:16;;;;;;;17.83;7.90;;;;;;;1.91;100.00;101141.81;4968887;28;20479;-77
2022/04/04 05:08:42;;;;;;;14.93;6.68;;;;;;;1.92;100.00;101139.97;4972988;28;20053;-78
2022/04/04 05:11:07;;;;;;;12.30;7.38;;;;;;;1.97;100.00;101144.28;4969743;28;20477;-78
2022/04/04 05:13:33;;;;;;;13.43;7.57;;;;;;;1.95;100.00;101135.38;4973396;28;20038;-78
2022/04/04 05:15:58;;;;;;;11.30;7.28;;;;;;;1.99;100.00;101134.28;4950052;29;20045;-78
2022/04/04 05:18:24;;;;;;;12.15;5.43;;;;;;;2.05;100.00;101132.28;4967655;28;20550;-78
2022/04/04 05:20:50;;;;;;;13.50;6.97;;;;;;;2.04;100.00;101123.31;4970659;28;20043;-77
2022/04/04 05:23:16;;;;;;;15.48;7.20;;;;;;;2.05;100.00;101114.28;4971467;28;20030;-79
2022/04/04 05:25:42;;;;;;;13.95;7.40;;;;;;;2.03;100.00;101099.94;4960675;28;20027;-77
2022/04/04 05:28:08;;;;;;;11.18;6.68;;;;;;;2.10;100.00;101097.88;4970804;28;20052;-77
2022/04/04 05:30:34;;;;;;;13.57;7.35;;;;;;;2.15;100.00;101102.16;4965828;28;20045;-77
2022/04/04 05:33:01;;;;;;;13.40;7.00;;;;;;;2.21;100.00;101101.03;4985860;28;20125;-77
2022/04/04 05:35:26;;;;;;;17.83;7.63;;;;;;;2.26;100.00;101100.84;4986698;28;20467;-79
2022/04/04 05:37:55;;;;;;;14.23;7.65;;;;;;;2.31;100.00;101091.63;4946829;28;20049;-77
2022/04/04 05:40:22;;;;;;;16.27;7.70;;;;;;;2.38;100.00;101087.72;4974591;28;20030;-77
2022/04/04 05:42:49;;;;;;;10.88;6.07;;;;;;;2.42;100.00;101083.06;4975436;28;21697;-77
2022/04/04 05:45:14;;;;;;;13.98;8.15;;;;;;;2.42;100.00;101079.47;4950126;28;20088;-77
2022/04/04 05:47:41;;;;;;;13.90;5.30;;;;;;;2.44;100.00;101074.88;4987043;28;20125;-78
2022/04/04 05:50:07;;;;;;;11.93;6.53;;;;;;;2.46;100.00;101068.50;4966888;28;20053;-78
2022/04/04 05:52:35;;;;;;;13.65;7.63;;;;;;;2.45;100.00;101055.91;4989145;28;20497;-77
2022/04/04 05:55:02;;;;;;;13.25;6.93;;;;;;;2.50;100.00;101058.41;4995560;28;20038;-78
2022/04/04 05:57:35;;;;;;;14.00;7.30;;;;;;;2.53;100.00;101051.06;4994740;28;20108;-78
2022/04/04 06:00:01;;;;;;;12.02;6.95;;;;;;;2.59;100.00;101047.19;4980673;28;20034;-79
2022/04/04 06:02:27;;;;;;;13.15;6.60;;;;;;;2.55;100.00;101041.06;4963171;28;20035;-78
2022/04/04 06:04:53;;;;;;;12.35;7.55;;;;;;;2.63;100.00;101034.47;4987616;28;20041;-78
2022/04/04 06:07:18;;;;;;;17.58;8.63;;;;;;;2.67;100.00;101027.97;4991640;28;20031;-78
2022/04/04 06:09:44;;;;;;;17.02;8.18;;;;;;;2.72;100.00;101034.03;4955756;28;20100;-78
2022/04/04 06:12:10;;;;;;;12.18;7.15;;;;;;;2.75;100.00;101023.09;4976131;28;20089;-78
2022/04/04 06:14:36;;;;;;;16.58;7.30;;;;;;;2.82;100.00;101015.59;4966345;28;20410;-78
2022/04/04 06:17:05;;;;;;;22.88;8.63;;;;;;;2.90;100.00;101013.41;4961671;28;20117;-78
2022/04/04 06:19:31;;;;;;;25.83;8.73;;;;;;;2.93;100.00;101013.28;4979595;28;20031;-78
2022/04/04 06:21:58;;;;;;;13.93;8.07;;;;;;;3.02;100.00;100996.66;4962621;28;20038;-78
2022/04/04 06:24:23;;;;;;;12.63;6.93;;;;;;;3.04;100.00;100992.03;4991366;28;20459;-79
2022/04/04 06:26:49;;;;;;;17.33;8.43;;;;;;;3.17;100.00;100995.06;4970716;28;20050;-78
2022/04/04 06:29:15;;;;;;;15.85;8.30;;;;;;;3.15;100.00;100988.88;4987982;28;20084;-78
2022/04/04 06:31:41;;;;;;;14.90;8.55;;;;;;;3.18;100.00;100986.03;4987606;28;20143;-78
2022/04/04 06:34:08;;;;;;;17.83;8.50;;;;;;;3.24;100.00;100984.84;4991050;28;20120;-78
2022/04/04 06:36:34;;;;;;;17.70;8.45;;;;;;;3.31;100.00;100978.19;4965982;28;20525;-78
2022/04/04 06:38:59;;;;;;;11.73;6.55;;;;;;;3.37;100.00;100975.19;4970792;28;20038;-78
2022/04/04 06:41:25;;;;;;;16.58;8.25;;;;;;;3.40;100.00;100964.22;4995708;28;20030;-81
2022/04/04 06:43:51;;;;;;;15.57;6.97;;;;;;;3.44;100.00;100967.66;4971399;28;20069;-80
2022/04/04 06:46:18;;;;;;;15.85;8.32;;;;;;;3.60;100.00;100948.88;4973152;28;20497;-80
2022/04/04 06:48:49;;;;;;;16.95;9.07;;;;;;;3.70;100.00;100950.16;4957104;28;20035;-81
2022/04/04 06:51:15;;;;;;;15.20;8.23;;;;;;;3.76;100.00;100970.66;4970569;28;20030;-79
2022/04/04 06:53:40;;;;;;;15.32;7.75;;;;;;;3.80;100.00;100946.03;4973340;28;20445;-79
2022/04/04 06:56:05;;;;;;;16.17;8.23;;;;;;;3.93;100.00;100956.28;4988270;28;20030;-79
2022/04/04 06:58:31;;;;;;;18.38;8.30;;;;;;;3.81;100.00;100944.22;4996879;28;20023;-79
2022/04/04 07:00:57;;;;;;;17.13;7.50;;;;;;;3.84;100.00;100941.38;4970955;28;20165;-78
2022/04/04 07:03:23;;;;;;;16.70;8.05;;;;;;;3.87;100.00;100943.94;4984455;28;20058;-79
2022/04/04 07:05:48;;;;;;;20.00;7.80;;;;;;;3.89;100.00;100936.59;4974465;28;20136;-79
2022/04/04 07:08:14;;;;;;;16.20;7.25;;;;;;;3.94;100.00;100936.38;4990116;28;20027;-80
2022/04/04 07:10:39;;;;;;;18.38;8.43;;;;;;;4.03;100.00;100938.59;4980531;28;20038;-79
2022/04/04 07:13:05;;;;;;;22.63;8.20;;;;;;;4.25;100.00;100946.53;4989616;28;20073;-79
2022/04/04 07:15:31;;;;;;;16.02;8.43;;;;;;;4.28;100.00;100945.47;4965557;28;20150;-79
2022/04/04 07:17:57;;;;;;;24.42;7.85;;;;;;;4.34;100.00;100926.19;4990217;28;20042;-78
2022/04/04 07:20:23;;;;;;;15.27;7.47;;;;;;;4.39;100.00;100918.69;4993858;28;20441;-79
2022/04/04 07:22:48;;;;;;;26.38;8.40;;;;;;;4.40;100.00;100918.59;4982182;28;20041;-79
2022/04/04 07:25:14;;;;;;;17.05;7.97;;;;;;;4.40;100.00;100905.06;4978328;28;20030;-78
2022/04/04 07:27:41;;;;;;;12.98;7.35;;;;;;;4.60;100.00;100904.00;4965277;28;20394;-78
2022/04/04 07:30:12;;;;;;;14.98;7.90;;;;;;;4.74;100.00;100913.25;4955740;28;20098;-79
2022/04/04 07:32:38;;;;;;;14.57;7.90;;;;;;;4.77;100.00;100913.06;4970800;28;20049;-78
2022/04/04 07:35:05;;;;;;;18.85;8.00;;;;;;;4.79;100.00;100909.31;4962675;28;20090;-78
2022/04/04 07:37:32;;;;;;;15.02;6.88;;;;;;;4.83;100.00;100888.31;4975618;28;20034;-79
2022/04/04 07:39:58;;;;;;;13.20;8.38;;;;;;;4.95;100.00;100887.66;4968501;28;20166;-79
2022/04/04 07:42:24;;;;;;;12.77;7.32;;;;;;;5.09;100.00;100883.28;4956276;28;20070;-78
2022/04/04 07:44:49;;;;;;;14.15;7.03;;;;;;;5.32;100.00;100874.72;4970546;28;20056;-78
2022/04/04 07:47:15;;;;;;;15.40;7.75;;;;;;;5.39;100.00;100877.09;4981252;28;20038;-79
2022/04/04 07:49:40;;;;;;;12.27;6.55;;;;;;;5.36;100.00;100874.53;4960110;28;20030;-78
2022/04/04 07:52:06;;;;;;;14.82;7.03;;;;;;;5.43;100.00;100867.81;4971456;28;20085;-79
2022/04/04 07:54:31;;;;;;;23.88;6.43;;;;;;;5.43;100.00;100859.69;4987262;28;20034;-81
2022/04/04 07:56:57;;;;;;;12.20;6.95;;;;;;;5.45;100.00;100861.31;4966306;28;20030;-78
2022/04/04 07:59:23;;;;;;;12.50;7.47;;;;;;;5.55;100.00;100850.81;4994672;28;20026;-78
2022/04/04 08:01:48;;;;;;;11.70;6.13;;;;;;;5.59;100.00;100840.63;4956946;28;20519;-78
2022/04/04 08:04:14;;;;;;;10.10;5.65;;;;;;;5.69;100.00;100853.59;4989041;28;20113;-78
2022/04/04 08:06:39;;;;;;;9.23;6.30;;;;;;;5.63;100.00;100851.22;4999382;28;20057;-80
2022/04/04 08:09:05;;;;;;;11.57;6.50;;;;;;;5.79;100.00;100826.75;4979373;28;20478;-78
2022/04/04 08:11:30;;;;;;;10.85;6.68;;;;;;;5.79;100.00;100825.84;4964564;28;20151;-77
2022/04/04 08:13:56;;;;;;;10.32;5.63;;;;;;;5.87;100.00;100826.28;4998323;28;20046;-78
2022/04/04 08:16:25;;;;;;;7.75;4.80;;;;;;;5.81;100.00;100813.09;4990891;28;20397;-78
2022/04/04 08:18:52;;;;;;;15.07;6.60;;;;;;;5.79;100.00;100810.47;4975812;28;20049;-78
2022/04/04 08:21:17;;;;;;;10.00;5.43;;;;;;;5.79;100.00;100807.75;4984774;28;20035;-78
2022/04/04 08:23:43;;;;;;;10.80;5.63;;;;;;;5.91;100.00;100811.56;4968168;28;20029;-77
2022/04/04 08:26:08;;;;;;;11.85;6.25;;;;;;;6.00;100.00;100802.88;4975294;28;20086;-78
2022/04/04 08:28:34;;;;;;;6.72;4.55;;;;;;;5.97;100.00;100784.03;4989265;28;20034;-78
2022/04/04 08:31:00;;;;;;;11.23;5.55;;;;;;;5.99;100.00;100790.25;4997564;28;20034;-78
2022/04/04 08:33:29;;;;;;;12.23;5.88;;;;;;;6.12;100.00;100773.22;4977599;28;20091;-79
2022/04/04 08:35:57;;;;;;;12.73;6.10;;;;;;;6.20;100.00;100774.47;4967999;28;20482;-78
2022/04/04 08:38:22;;;;;;;21.15;5.95;;;;;;;6.15;100.00;100773.00;4997209;28;20038;-78
2022/04/04 08:40:49;;;;;;;11.35;5.97;;;;;;;6.32;100.00;100775.53;4970480;28;20035;-78
2022/04/04 08:43:17;;;;;;;11.85;6.03;;;;;;;6.31;100.00;100764.75;4969034;28;20053;-79
2022/04/04 08:45:44;;;;;;;10.20;6.13;;;;;;;6.34;100.00;100765.44;4994577;28;20442;-77
2022/04/04 08:48:11;;;;;;;7.30;4.60;;;;;;;6.44;100.00;100741.25;4971247;28;20501;-78
2022/04/04 08:50:39;;;;;;;10.55;6.07;;;;;;;6.71;100.00;100751.34;4995603;28;20053;-79
2022/04/04 08:53:05;;;;;;;10.30;5.70;;;;;;;6.74;100.00;100753.84;4982092;28;20043;-78
2022/04/04 08:55:32;;;;;;;9.57;5.15;;;;;;;6.71;100.00;100745.91;4972581;28;20098;-78
2022/04/04 08:57:57;;;;;;;24.02;6.30;;;;;;;6.63;100.00;100736.38;4975686;28;20076;-80
2022/04/04 09:00:25;;;;;;;20.98;6.68;;;;;;;6.73;100.00;100728.50;4966675;28;20026;-81
2022/04/04 09:02:58;;;;;;;12.02;5.40;;;;;;;6.83;100.00;100723.31;4965879;28;20042;-81
2022/04/04 09:05:26;;;;;;;12.27;6.78;;;;;;;6.90;100.00;100718.34;4950978;28;20139;-80
2022/04/04 09:08:04;;;;;;;11.00;5.50;;;;;;;6.91;100.00;100714.66;4974159;28;20041;-79
2022/04/04 09:10:35;;;;;;;15.57;6.85;;;;;;;6.92;100.00;100708.22;4978091;28;20049;-80
2022/04/04 09:13:08;;;;;;;17.80;7.03;;;;;;;6.96;100.00;100713.38;4976765;28;20054;-78
2022/04/04 09:15:52;;;;;;;;;;;;;;;6.91;100.00;100712.81;4986740;28;20039;-79
2022/04/04 09:18:18;;;;;;;;;;;;;;;6.86;100.00;100703.22;4974345;28;19921;-80
2022/04/04 09:20:51;;;;;;;11.93;5.93;;;;;;;6.86;100.00;100701.34;4990199;28;19914;-79
2022/04/04 09:23:16;;;;;;;12.63;6.05;;;;;;;6.78;100.00;100698.28;4981863;28;20054;-78
2022/04/04 09:25:42;;;;;;;16.17;5.53;;;;;;;6.89;100.00;100690.28;4973827;28;20038;-78
2022/04/04 09:28:16;;;;;;;17.17;6.43;;;;;;;6.89;100.00;100689.41;4973407;28;20031;-78
2022/04/04 09:30:42;;;;;;;12.52;5.45;;;;;;;6.84;100.00;100665.22;4985453;28;20033;-78
2022/04/04 09:33:12;;;;;;;22.80;6.25;;;;;;;6.87;100.00;100669.56;4966305;28;20467;-78
2022/04/04 09:35:45;;;;;;;15.38;4.70;;;;;;;6.83;100.00;100668.03;4973707;28;20503;-79
2022/04/04 09:38:14;;;;;;;5.78;4.13;;;;;;;6.90;100.00;100662.06;4960254;28;20038;-79
2022/04/04 09:40:40;;;;;;;12.52;4.28;;;;;;;6.83;100.00;100662.59;4988906;28;20046;-80
2022/04/04 09:43:06;;;;;;;23.73;5.72;;;;;;;6.93;100.00;100669.16;4994329;28;20386;-79
2022/04/04 09:45:31;;;;;;;24.17;5.72;;;;;;;6.97;100.00;100678.88;4996660;28;20027;-79
2022/04/04 09:48:01;;;;;;;30.27;5.78;;;;;;;6.93;100.00;100669.16;4969329;28;20051;-79
2022/04/04 09:50:30;;;;;;;9.57;4.88;;;;;;;6.94;100.00;100677.22;4968555;28;20032;-79
2022/04/04 09:52:57;;;;;;;10.95;5.55;;;;;;;6.93;100.00;100663.72;4965618;28;20145;-79
2022/04/04 09:55:43;;;;;;;20.85;5.45;;;;;;;6.85;100.00;100658.78;4975061;28;20030;-78
2022/04/04 09:58:15;;;;;;;35.58;6.40;;;;;;;6.51;100.00;100655.59;4989041;28;20045;-78
2022/04/04 10:00:42;;;;;;;15.45;6.13;;;;;;;6.54;100.00;100651.78;4959720;28;20042;-78
2022/04/04 10:03:12;;;;;;;13.73;6.32;;;;;;;6.59;100.00;100652.34;4981065;28;20038;-77
2022/04/04 10:05:40;;;;;;;12.15;5.88;;;;;;;6.39;100.00;100653.66;4973280;28;20065;-78
2022/04/04 10:08:06;;;;;;;19.50;6.22;;;;;;;6.30;100.00;100641.53;4968043;28;20030;-78
2022/04/04 10:10:32;;;;;;;14.15;6.10;;;;;;;6.28;100.00;100637.16;4980464;28;20035;-78
2022/04/04 10:12:58;;;;;;;12.07;5.82;;;;;;;6.30;100.00;100632.53;4967765;28;20105;-77
2022/04/04 10:15:26;;;;;;;17.27;6.90;;;;;;;6.25;100.00;100638.25;4971049;28;20031;-77
2022/04/04 10:17:53;;;;;;;15.95;5.57;;;;;;;6.19;100.00;100639.50;4995362;28;20069;-77
2022/04/04 10:20:19;;;;;;;12.15;7.03;;;;;;;6.14;100.00;100638.06;4996762;28;20374;-77
2022/04/04 10:22:48;;;;;;;13.98;4.93;;;;;;;6.00;100.00;100638.94;4986118;28;20379;-77
2022/04/04 10:25:20;;;;;;;21.08;6.85;;;;;;;5.99;100.00;100632.63;4994456;28;20046;-77
2022/04/04 10:27:48;;;;;;;15.82;6.18;;;;;;;5.83;100.00;100634.53;4971326;28;20046;-76
2022/04/04 10:30:16;;;;;;;32.40;8.82;;;;;;;5.79;100.00;100631.16;4965889;28;20379;-76
2022/04/04 10:32:54;;;;;;;15.63;8.32;;;;;;;5.76;100.00;100635.91;4986494;28;20118;-76
2022/04/04 10:35:29;;;;;;;12.50;8.68;;;;;;;5.70;100.00;100629.88;4962448;28;20117;-76
2022/04/04 10:37:58;;;;;;;14.73;7.95;;;;;;;5.75;100.00;100620.56;4966564;28;20496;-76
2022/04/04 10:40:29;;;;;;;14.80;8.23;;;;;;;5.75;100.00;100616.00;4972747;28;20030;-75
2022/04/04 10:43:07;;;;;;;19.20;8.35;;;;;;;5.92;100.00;100636.69;4986130;28;20042;-76
2022/04/04 10:45:57;;;;;;;20.13;9.60;;;;;;;5.70;100.00;100615.41;4976915;28;20034;-77
2022/04/04 10:48:35;;;;;;;12.38;7.82;;;;;;;5.59;100.00;100621.53;4968467;28;20457;-77
2022/04/04 10:51:12;;;;;;;15.10;9.13;;;;;;;5.61;100.00;100616.03;4976329;28;20403;-76
2022/04/04 10:53:44;;;;;;;10.35;6.93;;;;;;;5.63;100.00;100616.78;4965360;28;20054;-75
2022/04/04 10:56:15;;;;;;;14.98;8.93;;;;;;;5.69;100.00;100602.84;4990867;28;20487;-76
2022/04/04 10:58:40;;;;;;;14.45;8.80;;;;;;;5.59;100.00;100607.06;4955841;28;20066;-75
2022/04/04 11:01:15;;;;;;;14.52;9.43;;;;;;;5.41;100.00;100585.53;4993276;28;20435;-76
2022/04/04 11:03:58;;;;;;;16.45;9.05;;;;;;;5.52;100.00;100598.44;4969572;28;20034;-75
2022/04/04 11:09:37;;;;;;;14.30;9.55;;;;;;;5.44;100.00;100593.47;4966788;28;20054;-76
2022/04/04 11:12:08;;;;;;;18.30;10.27;;;;;;;5.55;100.00;100587.38;4974611;28;20171;-76
2022/04/04 11:14:41;;;;;;;15.57;9.57;;;;;;;5.43;100.00;100591.75;4983552;28;20116;-76
2022/04/04 11:20:38;;;;;;;12.10;8.02;;;;;;;5.30;100.00;100593.47;4977733;28;20050;-78
2022/04/04 11:23:08;;;;;;;17.25;9.55;;;;;;;5.32;100.00;100592.41;4967616;28;20482;-78
2022/04/04 11:25:35;;;;;;;13.68;9.30;;;;;;;5.37;100.00;100585.81;4965105;28;20042;-78